Friday, October 31, 2014, 2:26 PM EDT

KOKV, Winchester Regional

Location: Winchester, VA, United States Lat: 39.15
Local Time: 2:26 PM EDT (18:26 GMT) Lon: -78.15
Time Zone: US/Eastern Elev: 728 ft

Show me the last for .
Show Decoded

2014-10-31 14:15 METAR KOKV 311815Z AUTO 12004KT 10SM OVC050 12/M01 A2988 RMK AO2 =
2014-10-31 13:55 METAR KOKV 311755Z AUTO 00000KT 10SM OVC055 12/M01 A2988 RMK AO2 =
2014-10-31 13:35 METAR KOKV 311735Z AUTO 00000KT 10SM OVC055 12/M03 A2989 RMK AO2 =
2014-10-31 13:15 METAR KOKV 311715Z AUTO 00000KT 10SM OVC055 12/M01 A2991 RMK AO2 =
2014-10-31 12:55 METAR KOKV 311655Z AUTO 12005KT 10SM OVC055 12/00 A2992 RMK AO2 =
2014-10-31 12:35 METAR KOKV 311635Z AUTO 13005KT 10SM OVC055 12/01 A2993 RMK AO2 =
2014-10-31 12:15 METAR KOKV 311615Z AUTO 13004KT 10SM OVC055 12/00 A2994 RMK AO2 =
2014-10-31 11:55 METAR KOKV 311555Z AUTO 10003KT 10SM OVC055 11/00 A2995 RMK AO2 =
2014-10-31 11:35 METAR KOKV 311535Z AUTO 15004KT 10SM OVC055 11/00 A2996 RMK AO2 =
2014-10-31 11:15 METAR KOKV 311515Z AUTO 00000KT 10SM SCT055 11/00 A2996 RMK AO2 =
2014-10-31 10:55 METAR KOKV 311455Z AUTO 00000KT 10SM CLR 11/00 A2996 RMK AO2 =
2014-10-31 10:35 METAR KOKV 311435Z AUTO 00000KT 10SM SCT050 10/01 A2997 RMK AO2 =
2014-10-31 10:15 METAR KOKV 311415Z AUTO 00000KT 10SM OVC050 08/02 A2998 RMK AO2 =
2014-10-31 09:55 METAR KOKV 311355Z AUTO 00000KT 10SM OVC050 08/02 A2999 RMK AO2 =
2014-10-31 09:35 METAR KOKV 311335Z AUTO 00000KT 10SM OVC050 06/01 A2999 RMK AO2 =
2014-10-31 09:15 METAR KOKV 311315Z AUTO 13003KT 10SM OVC050 06/01 A2999 RMK AO2 =
2014-10-31 08:55 METAR KOKV 311255Z AUTO 00000KT 10SM OVC050 05/01 A2999 RMK AO2 =
2014-10-31 08:35 METAR KOKV 311235Z AUTO 00000KT 7SM OVC050 05/01 A2999 RMK AO2 =
2014-10-31 08:15 METAR KOKV 311215Z AUTO 00000KT 10SM OVC055 04/01 A2998 RMK AO2 =
2014-10-31 07:55 METAR KOKV 311155Z AUTO 00000KT 10SM OVC055 03/01 A2998 RMK AO2 =
2014-10-31 07:35 METAR KOKV 311135Z AUTO 27003KT 10SM BKN055 03/00 A2999 RMK AO2 =
2014-10-31 07:15 METAR KOKV 311115Z AUTO 00000KT 10SM SCT055 02/00 A2999 RMK AO2 =
2014-10-31 06:55 METAR KOKV 311055Z AUTO 00000KT 10SM CLR 02/00 A2999 RMK AO2 =
2014-10-31 06:35 METAR KOKV 311035Z AUTO 00000KT 7SM SCT050 02/00 A2999 RMK AO2 =
2014-10-31 06:15 METAR KOKV 311015Z AUTO 00000KT 10SM SCT050 03/00 A3000 RMK AO2 =
2014-10-31 05:55 METAR KOKV 310955Z AUTO 00000KT 10SM CLR 04/00 A3000 RMK AO2 =
2014-10-31 05:35 METAR KOKV 310935Z AUTO 00000KT 10SM CLR 04/01 A3000 RMK AO2 =
2014-10-31 05:15 METAR KOKV 310915Z AUTO 00000KT 10SM SCT060 05/00 A3000 RMK AO2 =
2014-10-31 04:55 METAR KOKV 310855Z AUTO 24003KT 10SM OVC060 06/01 A3000 RMK AO2 =
2014-10-31 04:35 METAR KOKV 310835Z AUTO 24004KT 10SM OVC060 06/01 A3000 RMK AO2 =
2014-10-31 04:15 METAR KOKV 310815Z AUTO 23005KT 10SM OVC060 06/01 A3001 RMK AO2 =
2014-10-31 03:35 METAR KOKV 310735Z AUTO 22004KT 10SM OVC060 05/01 A3001 RMK AO2 =
2014-10-31 03:15 METAR KOKV 310715Z AUTO 00000KT 10SM OVC060 04/01 A3002 RMK AO2 =
2014-10-31 02:55 METAR KOKV 310655Z AUTO 00000KT 10SM BKN060 03/00 A3002 RMK AO2 =
2014-10-31 02:35 METAR KOKV 310635Z AUTO 00000KT 10SM SCT060 03/00 A3002 RMK AO2 =
2014-10-31 02:15 METAR KOKV 310615Z AUTO 00000KT 10SM CLR 03/00 A3002 RMK AO2 =
2014-10-31 01:55 METAR KOKV 310555Z AUTO 00000KT 10SM CLR 04/00 A3002 RMK AO2 =
2014-10-31 01:35 METAR KOKV 310535Z AUTO 00000KT 10SM CLR 06/00 A3002 RMK AO2 =
2014-10-31 01:15 METAR KOKV 310515Z AUTO 00000KT 10SM SCT050 06/00 A3003 RMK AO2 =
2014-10-31 00:55 METAR KOKV 310455Z AUTO 00000KT 10SM BKN050 07/00 A3003 RMK AO2 =
2014-10-31 00:35 METAR KOKV 310435Z AUTO 00000KT 10SM OVC050 07/00 A3003 RMK AO2 =
2014-10-31 00:15 METAR KOKV 310415Z AUTO 00000KT 10SM OVC050 07/00 A3003 RMK AO2 =
2014-10-30 23:55 METAR KOKV 310355Z AUTO 00000KT 10SM OVC050 07/00 A3003 RMK AO2 =
2014-10-30 23:35 METAR KOKV 310335Z AUTO 00000KT 10SM BKN050 08/00 A3004 RMK AO2 =
2014-10-30 23:15 METAR KOKV 310315Z AUTO 00000KT 10SM OVC050 08/00 A3004 RMK AO2 =
2014-10-30 22:55 METAR KOKV 310255Z AUTO 00000KT 10SM OVC050 08/01 A3005 RMK AO2 =
2014-10-30 22:35 METAR KOKV 310235Z AUTO 00000KT 10SM OVC050 08/01 A3005 RMK AO2 =
2014-10-30 22:15 METAR KOKV 310215Z AUTO 00000KT 10SM OVC050 08/01 A3005 RMK AO2 =
2014-10-30 21:55 METAR KOKV 310155Z AUTO 00000KT 10SM OVC050 09/02 A3005 RMK AO2 =
2014-10-30 21:35 METAR KOKV 310135Z AUTO 00000KT 10SM OVC050 10/02 A3005 RMK AO2 =
2014-10-30 21:15 METAR KOKV 310115Z AUTO 00000KT 10SM OVC050 10/01 A3005 RMK AO2 =
2014-10-30 20:55 METAR KOKV 310055Z AUTO 00000KT 10SM OVC050 10/01 A3005 RMK AO2 =
2014-10-30 20:35 METAR KOKV 310035Z AUTO 00000KT 10SM OVC050 09/01 A3005 RMK AO2 =
2014-10-30 20:15 METAR KOKV 310015Z AUTO 00000KT 10SM OVC050 10/00 A3005 RMK AO2 =
2014-10-30 19:55 METAR KOKV 302355Z AUTO 00000KT 10SM OVC050 10/00 A3005 RMK AO2 =
2014-10-30 19:35 METAR KOKV 302335Z AUTO 00000KT 10SM OVC050 09/00 A3005 RMK AO2 =
2014-10-30 19:15 METAR KOKV 302315Z AUTO 00000KT 10SM OVC050 09/00 A3005 RMK AO2 =
2014-10-30 18:55 METAR KOKV 302255Z AUTO 31003KT 10SM OVC050 09/00 A3005 RMK AO2 =
2014-10-30 18:35 METAR KOKV 302235Z AUTO 30006KT 10SM OVC050 10/00 A3005 RMK AO2 =
2014-10-30 18:15 METAR KOKV 302215Z AUTO 31006KT 10SM OVC050 11/00 A3005 RMK AO2 =
2014-10-30 17:55 METAR KOKV 302155Z AUTO 31007KT 10SM OVC050 11/00 A3005 RMK AO2 =
2014-10-30 17:35 METAR KOKV 302135Z AUTO 31008KT 10SM OVC050 11/00 A3005 RMK AO2 =
2014-10-30 17:15 METAR KOKV 302115Z AUTO 30007KT 10SM OVC050 11/00 A3005 RMK AO2 =
2014-10-30 16:55 METAR KOKV 302055Z AUTO 31007KT 10SM OVC050 11/00 A3005 RMK AO2 =
2014-10-30 16:35 METAR KOKV 302035Z AUTO 30009KT 10SM OVC050 12/00 A3005 RMK AO2 =
2014-10-30 16:15 METAR KOKV 302015Z AUTO 31006KT 10SM OVC050 12/00 A3005 RMK AO2 =
2014-10-30 15:55 METAR KOKV 301955Z AUTO 30006KT 10SM OVC050 12/00 A3005 RMK AO2 =
2014-10-30 15:15 METAR KOKV 301915Z AUTO 31006KT 10SM OVC050 12/00 A3005 RMK AO2 =
2014-10-30 14:55 METAR KOKV 301855Z AUTO 30009KT 10SM OVC050 12/00 A3005 RMK AO2 =
2014-10-30 14:35 METAR KOKV 301835Z AUTO 31008KT 10SM OVC048 12/00 A3005 RMK AO2 =

Support USWX by starting your Amazon purchase here.